Time;durP1;ratioP1;P1;durP2;ratioP2;P2;SDS_P1;SDS_P2;PMS_P1;PMS_P2;Temp;Humidity;BMP_temperature;BMP_pressure;BME280_temperature;BME280_humidity;BME280_pressure;Samples;Min_cycle;Max_cycle;Signal;HPM_P1;HPM_P2
2023/05/12 00:00:54;;;;;;;;;4.00;4.00;;;;;;;;2069025;27;2741940;-75
2023/05/12 00:02:04;;;;;;;;;5.00;3.00;;;;;;;;2043591;27;3445543;-75
2023/05/12 00:03:15;;;;;;;;;1.33;1.33;;;;;;;;2069570;27;2733640;-75
2023/05/12 00:04:28;;;;;;;;;4.17;2.67;;;;;;;;2070594;27;2734682;-75
2023/05/12 00:05:38;;;;;;;;;3.00;3.00;;;;;;;;2044265;27;2748220;-75
2023/05/12 00:06:49;;;;;;;;;3.00;3.00;;;;;;;;2069280;27;2753378;-75
2023/05/12 00:08:02;;;;;;;;;2.67;2.00;;;;;;;;2070444;27;2742966;-75
2023/05/12 00:09:15;;;;;;;;;3.33;1.83;;;;;;;;2060522;27;2733670;-76
2023/05/12 00:10:28;;;;;;;;;2.00;2.00;;;;;;;;2036273;27;2738842;-75
2023/05/12 00:11:38;;;;;;;;;4.00;2.33;;;;;;;;2042297;27;2754443;-75
2023/05/12 00:12:49;;;;;;;;;2.00;1.67;;;;;;;;2064904;27;2730241;-75
2023/05/12 00:14:02;;;;;;;;;1.17;1.17;;;;;;;;2071545;27;2733603;-75
2023/05/12 00:15:12;;;;;;;;;2.67;1.00;;;;;;;;2044075;27;2736743;-75
2023/05/12 00:16:23;;;;;;;;;2.67;2.00;;;;;;;;2064201;27;2754438;-75
2023/05/12 00:17:35;;;;;;;;;1.00;1.00;;;;;;;;2063121;27;2729507;-75
2023/05/12 00:18:48;;;;;;;;;3.00;2.33;;;;;;;;2056393;27;2741967;-74
2023/05/12 00:20:01;;;;;;;;;3.17;1.83;;;;;;;;2037940;27;2728434;-74
2023/05/12 00:21:11;;;;;;;;;8.00;2.67;;;;;;;;2018826;27;2754459;-74
2023/05/12 00:22:22;;;;;;;;;3.00;3.00;;;;;;;;2069305;27;2734646;-74
2023/05/12 00:23:32;;;;;;;;;2.00;2.00;;;;;;;;2043709;27;2742017;-74
2023/05/12 00:24:43;;;;;;;;;3.00;1.67;;;;;;;;2060650;27;2731519;-75
2023/05/12 00:25:54;;;;;;;;;5.00;2.33;;;;;;;;2026809;27;2752352;-75
2023/05/12 00:27:05;;;;;;;;;3.00;3.00;;;;;;;;2061562;27;2737835;-74
2023/05/12 00:28:19;;;;;;;;;4.00;4.00;;;;;;;;2070265;27;2750317;-74
2023/05/12 00:29:32;;;;;;;;;3.67;3.17;;;;;;;;2040252;27;2746129;-74
2023/05/12 00:30:45;;;;;;;;;3.00;3.00;;;;;;;;2041354;27;2737795;-74
2023/05/12 00:31:58;;;;;;;;;3.00;3.00;;;;;;;;2046275;27;2737795;-74
2023/05/12 00:33:11;;;;;;;;;2.67;2.67;;;;;;;;2046340;27;2746094;-74
2023/05/12 00:34:26;;;;;;;;;3.50;2.50;;;;;;;;2046055;27;2751658;-74
2023/05/12 00:35:36;;;;;;;;;3.00;3.00;;;;;;;;2020677;27;2750276;-74
2023/05/12 00:36:47;;;;;;;;;3.00;2.00;;;;;;;;2060953;27;2738818;-74
2023/05/12 00:37:57;;;;;;;;;3.00;2.67;;;;;;;;2036113;27;2745072;-74
2023/05/12 00:39:08;;;;;;;;;4.67;3.00;;;;;;;;2069231;27;2745084;-74
2023/05/12 00:40:19;;;;;;;;;6.00;3.00;;;;;;;;2043754;27;2741997;-74
2023/05/12 00:41:30;;;;;;;;;2.00;2.00;;;;;;;;2069153;27;2736758;-75
2023/05/12 00:42:42;;;;;;;;;3.00;2.00;;;;;;;;2068795;27;2744050;-75
2023/05/12 00:43:52;;;;;;;;;2.00;2.00;;;;;;;;2011389;27;2745051;-74
2023/05/12 00:45:04;;;;;;;;;1.00;1.00;;;;;;;;2061453;27;2746101;-74
2023/05/12 00:46:17;;;;;;;;;4.00;4.00;;;;;;;;2060760;27;2741932;-74
2023/05/12 00:47:31;;;;;;;;;3.17;2.33;;;;;;;;2036216;27;2740906;-74
2023/05/12 00:48:44;;;;;;;;;3.33;2.17;;;;;;;;2067854;27;2742993;-74
2023/05/12 00:49:58;;;;;;;;;1.33;1.33;;;;;;;;2046029;27;2726308;-74
2023/05/12 00:51:12;;;;;;;;;3.50;3.50;;;;;;;;2046365;27;2745096;-74
2023/05/12 00:52:26;;;;;;;;;3.00;2.67;;;;;;;;2046315;27;2754424;-74
2023/05/12 00:53:39;;;;;;;;;4.33;2.83;;;;;;;;2046348;27;2738825;-74
2023/05/12 00:54:53;;;;;;;;;2.00;2.00;;;;;;;;2044927;27;2748181;-74
2023/05/12 00:56:07;;;;;;;;;3.50;3.00;;;;;;;;2046076;27;2738803;-74
2023/05/12 00:57:21;;;;;;;;;2.00;2.00;;;;;;;;2042914;27;2741948;-74
2023/05/12 00:58:34;;;;;;;;;2.83;2.33;;;;;;;;2030774;27;2748200;-74
2023/05/12 00:59:47;;;;;;;;;4.33;2.83;;;;;;;;2030360;27;2735697;-74
2023/05/12 01:00:57;;;;;;;;;2.00;2.00;;;;;;;;2008768;27;2738850;-74
2023/05/12 01:02:08;;;;;;;;;1.67;1.67;;;;;;;;2062401;27;2738846;-74
2023/05/12 01:03:21;;;;;;;;;2.00;1.83;;;;;;;;2068927;27;2741978;-74
2023/05/12 01:04:35;;;;;;;;;4.17;3.00;;;;;;;;2045838;27;2734652;-74
2023/05/12 01:05:50;;;;;;;;;5.17;3.00;;;;;;;;2046874;27;2737765;-74
2023/05/12 01:07:11;;;;;;;;;3.00;3.00;;;;;;;;2043889;27;2745067;-74
2023/05/12 01:08:24;;;;;;;;;3.17;1.67;;;;;;;;2038904;27;2739844;-74
2023/05/12 01:09:37;;;;;;;;;4.00;3.00;;;;;;;;2043263;27;2731527;-74
2023/05/12 01:10:51;;;;;;;;;5.17;3.00;;;;;;;;2041309;27;2735719;-74
2023/05/12 01:12:04;;;;;;;;;1.67;1.67;;;;;;;;2031520;27;2741476;-74
2023/05/12 01:13:17;;;;;;;;;4.00;2.00;;;;;;;;2030278;27;2750321;-75
2023/05/12 01:14:28;;;;;;;;;3.00;1.67;;;;;;;;2019041;27;2746125;-74
2023/05/12 01:15:41;;;;;;;;;3.00;1.67;;;;;;;;2069319;27;2736770;-75
2023/05/12 01:16:57;;;;;;;;;3.33;3.00;;;;;;;;2070128;27;2747128;-75
2023/05/12 01:18:11;;;;;;;;;3.83;2.17;;;;;;;;2040687;27;2752350;-75
2023/05/12 01:19:36;;;;;;;;;2.00;2.00;;;;;;;;2039245;27;2735689;-75
2023/05/12 01:20:47;;;;;;;;;2.00;2.00;;;;;;;;2019190;27;2752859;-75
2023/05/12 01:21:58;;;;;;;;;3.00;3.00;;;;;;;;2054919;27;2750285;-75
2023/05/12 01:23:12;;;;;;;;;2.40;2.40;;;;;;;;2057388;27;2751334;-75
2023/05/12 01:24:27;;;;;;;;;3.00;3.00;;;;;;;;2062142;27;2750257;-75
2023/05/12 01:25:42;;;;;;;;;3.17;2.33;;;;;;;;2045510;27;2735705;-75
2023/05/12 01:26:55;;;;;;;;;5.00;2.00;;;;;;;;2046443;27;2741967;-75
2023/05/12 01:28:06;;;;;;;;;3.00;2.33;;;;;;;;2019876;27;2753404;-75
2023/05/12 01:29:20;;;;;;;;;4.00;3.00;;;;;;;;2070203;27;2734661;-75
2023/05/12 01:30:33;;;;;;;;;1.00;1.00;;;;;;;;2069974;27;2741916;-75
2023/05/12 01:31:43;;;;;;;;;3.00;3.00;;;;;;;;2020271;27;2748217;-75
2023/05/12 01:32:55;;;;;;;;;3.25;2.00;;;;;;;;2065912;27;2751303;-75
2023/05/12 01:34:14;;;;;;;;;2.00;2.00;;;;;;;;2061727;27;2739871;-75
2023/05/12 01:35:24;;;;;;;;;1.67;1.67;;;;;;;;2019123;27;2751316;-75
2023/05/12 01:36:35;;;;;;;;;2.00;2.00;;;;;;;;2068473;27;2730482;-75
2023/05/12 01:37:47;;;;;;;;;2.40;2.40;;;;;;;;2070323;27;2733598;-75
2023/05/12 01:39:00;;;;;;;;;1.00;1.00;;;;;;;;2047802;27;2738838;-75
2023/05/12 01:40:13;;;;;;;;;2.00;2.00;;;;;;;;2046754;27;2729492;-75
2023/05/12 01:41:26;;;;;;;;;3.33;2.00;;;;;;;;2038058;27;2752344;-75
2023/05/12 01:42:40;;;;;;;;;2.67;2.67;;;;;;;;2041878;27;2747144;-76
2023/05/12 01:43:53;;;;;;;;;1.83;1.83;;;;;;;;2045997;27;2739841;-75
2023/05/12 01:45:07;;;;;;;;;2.00;2.00;;;;;;;;2045487;27;2744018;-76
2023/05/12 01:46:20;;;;;;;;;4.00;2.17;;;;;;;;2044327;27;2740899;-76
2023/05/12 01:47:33;;;;;;;;;2.67;1.83;;;;;;;;2046225;27;2739853;-75
2023/05/12 01:48:43;;;;;;;;;4.00;2.33;;;;;;;;2018590;27;2754419;-76
2023/05/12 01:49:54;;;;;;;;;3.00;3.00;;;;;;;;2068644;27;2734070;-75
2023/05/12 01:51:07;;;;;;;;;3.33;2.17;;;;;;;;2069131;27;2749225;-75
2023/05/12 01:52:20;;;;;;;;;2.17;2.17;;;;;;;;2069154;27;2746102;-75
2023/05/12 01:53:33;;;;;;;;;3.67;2.67;;;;;;;;2036277;27;2746119;-75
2023/05/12 01:54:46;;;;;;;;;3.67;1.67;;;;;;;;2029258;27;2750737;-76
2023/05/12 01:55:59;;;;;;;;;4.33;3.17;;;;;;;;2038148;27;2747152;-76
2023/05/12 01:57:12;;;;;;;;;6.50;3.00;;;;;;;;2046342;27;2747147;-75
2023/05/12 01:58:25;;;;;;;;;5.17;3.00;;;;;;;;2044865;27;2739860;-75
2023/05/12 01:59:38;;;;;;;;;3.17;2.17;;;;;;;;2039465;27;2752337;-75
2023/05/12 02:00:51;;;;;;;;;2.17;2.17;;;;;;;;2037158;27;2750280;-75
2023/05/12 02:02:04;;;;;;;;;7.17;3.33;;;;;;;;2039296;27;2741962;-75
2023/05/12 02:03:18;;;;;;;;;4.17;3.00;;;;;;;;2036648;27;2739849;-75
2023/05/12 02:04:31;;;;;;;;;4.17;3.00;;;;;;;;2038257;27;2744022;-75
2023/05/12 02:05:44;;;;;;;;;4.17;3.00;;;;;;;;2044573;27;2752438;-75
2023/05/12 02:06:57;;;;;;;;;3.00;3.00;;;;;;;;2045304;27;2744028;-75
2023/05/12 02:08:10;;;;;;;;;6.50;3.33;;;;;;;;2036005;27;2741943;-75
2023/05/12 02:09:23;;;;;;;;;6.00;4.50;;;;;;;;2037283;27;2749227;-75
2023/05/12 02:10:33;;;;;;;;;4.00;4.00;;;;;;;;2019356;27;2754509;-76
2023/05/12 02:11:44;;;;;;;;;3.00;3.00;;;;;;;;2059685;27;2744022;-75
2023/05/12 02:12:54;;;;;;;;;4.00;4.00;;;;;;;;2028539;27;2751664;-75
2023/05/12 02:14:05;;;;;;;;;7.00;4.67;;;;;;;;2065234;27;2742281;-75
2023/05/12 02:15:18;;;;;;;;;2.83;2.00;;;;;;;;2058225;27;2741959;-75
2023/05/12 02:16:28;;;;;;;;;4.67;4.67;;;;;;;;2027153;27;2747148;-75
2023/05/12 02:17:39;;;;;;;;;7.33;5.00;;;;;;;;2067089;27;2740431;-75
2023/05/12 02:18:50;;;;;;;;;4.33;4.33;;;;;;;;2058752;27;2746133;-75
2023/05/12 02:20:04;;;;;;;;;6.60;4.40;;;;;;;;2060207;27;2752359;-75
2023/05/12 02:21:17;;;;;;;;;3.50;3.50;;;;;;;;2046775;27;2745070;-75
2023/05/12 02:22:27;;;;;;;;;6.00;4.33;;;;;;;;2019076;27;2750669;-76
2023/05/12 02:23:38;;;;;;;;;4.00;3.33;;;;;;;;2058906;27;2744023;-75
2023/05/12 02:24:48;;;;;;;;;4.33;4.33;;;;;;;;2026747;27;3454439;-75
2023/05/12 02:25:59;;;;;;;;;3.00;2.00;;;;;;;;2056907;27;2753896;-75
2023/05/12 02:27:10;;;;;;;;;3.33;3.00;;;;;;;;2059173;27;2750307;-75
2023/05/12 02:28:22;;;;;;;;;4.60;2.80;;;;;;;;2046526;28;2750283;-75
2023/05/12 02:29:36;;;;;;;;;4.67;4.00;;;;;;;;2031802;27;2744007;-75
2023/05/12 02:30:47;;;;;;;;;6.00;4.00;;;;;;;;2010153;27;2754923;-75
2023/05/12 02:32:00;;;;;;;;;7.00;4.00;;;;;;;;2062025;27;2747167;-75
2023/05/12 02:33:11;;;;;;;;;5.00;3.00;;;;;;;;2018822;27;2746110;-76
2023/05/12 02:34:21;;;;;;;;;5.33;4.00;;;;;;;;2057236;27;2740908;-75
2023/05/12 02:35:32;;;;;;;;;5.33;3.00;;;;;;;;2059500;27;2738811;-75
2023/05/12 02:36:44;;;;;;;;;4.80;4.60;;;;;;;;2055829;27;2754432;-75
2023/05/12 02:37:55;;;;;;;;;5.67;5.00;;;;;;;;2011901;27;2743045;-76
2023/05/12 02:39:06;;;;;;;;;7.67;6.67;;;;;;;;2053466;27;2737788;-76
2023/05/12 02:40:19;;;;;;;;;5.00;4.00;;;;;;;;2051829;27;2742018;-76
2023/05/12 02:41:30;;;;;;;;;4.33;4.33;;;;;;;;2012245;27;2754486;-76
2023/05/12 02:42:42;;;;;;;;;9.00;5.67;;;;;;;;2064160;27;2753522;-76
2023/05/12 02:43:52;;;;;;;;;5.00;5.00;;;;;;;;2043426;27;2746102;-76
2023/05/12 02:45:03;;;;;;;;;6.67;5.00;;;;;;;;2067673;27;2744022;-76
2023/05/12 02:46:14;;;;;;;;;8.00;7.00;;;;;;;;2044165;27;1823171;-76
2023/05/12 02:47:30;;;;;;;;;6.83;6.00;;;;;;;;2052228;27;2745061;-75
2023/05/12 02:48:40;;;;;;;;;8.00;8.00;;;;;;;;2033330;27;2725395;-76
2023/05/12 02:49:51;;;;;;;;;7.00;5.00;;;;;;;;2048886;27;2753412;-76
2023/05/12 02:51:02;;;;;;;;;7.00;5.00;;;;;;;;2051757;27;3458593;-76
2023/05/12 02:52:13;;;;;;;;;4.67;4.67;;;;;;;;2052943;27;3450765;-76
2023/05/12 02:53:25;;;;;;;;;6.67;4.67;;;;;;;;2059802;27;2748189;-76
2023/05/12 02:54:36;;;;;;;;;6.00;5.00;;;;;;;;2035585;27;2754428;-76
2023/05/12 02:55:47;;;;;;;;;4.00;4.00;;;;;;;;2062091;27;2742403;-76
2023/05/12 02:56:58;;;;;;;;;9.00;5.33;;;;;;;;2033647;27;2742011;-76
2023/05/12 02:58:11;;;;;;;;;4.00;3.83;;;;;;;;2059943;27;2741964;-76
2023/05/12 02:59:24;;;;;;;;;6.00;2.00;;;;;;;;2045805;27;2734644;-76
2023/05/12 03:00:34;;;;;;;;;6.33;5.00;;;;;;;;2018568;27;2748192;-76
2023/05/12 03:01:45;;;;;;;;;3.00;1.00;;;;;;;;2060366;27;2722149;-76
2023/05/12 03:02:57;;;;;;;;;3.00;2.00;;;;;;;;2061428;27;2723208;-76
2023/05/12 03:04:08;;;;;;;;;4.33;4.33;;;;;;;;2020938;27;2746110;-76
2023/05/12 03:05:19;;;;;;;;;5.00;5.00;;;;;;;;2068251;27;2742989;-76
2023/05/12 03:06:29;;;;;;;;;2.33;2.33;;;;;;;;2043329;27;2749235;-76
2023/05/12 03:07:40;;;;;;;;;4.67;2.67;;;;;;;;2056691;27;2741963;-76
2023/05/12 03:08:50;;;;;;;;;3.00;2.33;;;;;;;;2028225;27;2747169;-76
2023/05/12 03:10:01;;;;;;;;;7.67;4.00;;;;;;;;2051740;27;2754439;-76
2023/05/12 03:11:14;;;;;;;;;4.50;2.67;;;;;;;;2058171;27;2749223;-78
2023/05/12 03:12:24;;;;;;;;;5.00;5.00;;;;;;;;2029180;27;2754447;-78
2023/05/12 03:13:35;;;;;;;;;4.33;4.33;;;;;;;;2050319;27;2752411;-78
2023/05/12 03:14:50;;;;;;;;;4.00;3.00;;;;;;;;2051983;27;2733609;-78
2023/05/12 03:16:00;;;;;;;;;3.67;3.00;;;;;;;;2035237;27;2746189;-78
2023/05/12 03:17:11;;;;;;;;;3.67;3.67;;;;;;;;2065052;27;2748757;-78
2023/05/12 03:18:22;;;;;;;;;5.00;4.00;;;;;;;;2063544;27;3470030;-78
2023/05/12 03:19:33;;;;;;;;;5.00;4.00;;;;;;;;2058529;27;2747132;-78
2023/05/12 03:20:46;;;;;;;;;4.33;3.00;;;;;;;;2060611;27;2726303;-78
2023/05/12 03:22:00;;;;;;;;;5.33;3.00;;;;;;;;2045190;27;2754434;-78
2023/05/12 03:23:13;;;;;;;;;5.83;5.00;;;;;;;;2035857;27;2746138;-78
2023/05/12 03:24:26;;;;;;;;;4.67;3.83;;;;;;;;2037359;27;2754450;-78
2023/05/12 03:25:39;;;;;;;;;4.50;3.17;;;;;;;;2045411;27;2738810;-77
2023/05/12 03:26:49;;;;;;;;;3.33;3.33;;;;;;;;2009959;27;2747165;-77
2023/05/12 03:28:02;;;;;;;;;9.00;2.67;;;;;;;;2057194;27;2758705;-77
2023/05/12 03:29:15;;;;;;;;;3.00;3.00;;;;;;;;2060107;27;2742969;-78
2023/05/12 03:30:25;;;;;;;;;4.00;4.00;;;;;;;;2011132;27;2750313;-76
2023/05/12 03:31:36;;;;;;;;;8.00;3.67;;;;;;;;2067906;27;2740893;-76
2023/05/12 03:32:49;;;;;;;;;4.00;2.00;;;;;;;;2068124;27;2747143;-76
2023/05/12 03:34:00;;;;;;;;;6.00;4.33;;;;;;;;2019422;27;2750293;-77
2023/05/12 03:35:11;;;;;;;;;5.00;4.00;;;;;;;;2052864;27;2748205;-76
2023/05/12 03:36:22;;;;;;;;;7.25;5.00;;;;;;;;2051946;27;2741947;-75
2023/05/12 03:37:32;;;;;;;;;3.33;3.00;;;;;;;;2033885;27;2737762;-75
2023/05/12 03:38:43;;;;;;;;;4.33;3.00;;;;;;;;2059325;27;2754449;-75
2023/05/12 03:39:57;;;;;;;;;3.67;3.67;;;;;;;;2058866;27;2751299;-75
2023/05/12 03:41:10;;;;;;;;;6.50;5.17;;;;;;;;2060880;27;2745073;-74
2023/05/12 03:42:20;;;;;;;;;4.00;3.00;;;;;;;;2017950;27;2741978;-75
2023/05/12 03:43:31;;;;;;;;;6.00;5.00;;;;;;;;2067822;27;2745096;-76
2023/05/12 03:44:41;;;;;;;;;5.00;4.00;;;;;;;;2041770;27;2740894;-75
2023/05/12 03:45:52;;;;;;;;;7.00;4.67;;;;;;;;2065988;27;2745068;-75
2023/05/12 03:47:02;;;;;;;;;5.33;4.00;;;;;;;;2034158;27;2752416;-75
2023/05/12 03:48:13;;;;;;;;;5.33;4.33;;;;;;;;2066073;27;2752813;-74
2023/05/12 03:49:24;;;;;;;;;4.67;4.67;;;;;;;;2044876;27;2748268;-74
2023/05/12 03:50:35;;;;;;;;;5.00;4.33;;;;;;;;2058634;27;2740915;-74
2023/05/12 03:51:45;;;;;;;;;10.00;5.33;;;;;;;;2033643;27;3481489;-74
2023/05/12 03:52:56;;;;;;;;;5.00;3.67;;;;;;;;2059570;27;2752824;-74
2023/05/12 03:54:07;;;;;;;;;2.00;2.00;;;;;;;;2068037;27;2737758;-74
2023/05/12 03:55:20;;;;;;;;;7.00;6.33;;;;;;;;2067175;27;2744066;-74
2023/05/12 03:56:30;;;;;;;;;7.33;3.67;;;;;;;;2025565;27;2750325;-74
2023/05/12 03:57:41;;;;;;;;;7.33;5.33;;;;;;;;2049866;27;2747197;-74
2023/05/12 03:58:52;;;;;;;;;8.00;5.00;;;;;;;;2061286;27;2746103;-74
2023/05/12 04:00:06;;;;;;;;;7.33;5.33;;;;;;;;2060636;27;1822667;-74
2023/05/12 04:01:19;;;;;;;;;3.83;3.50;;;;;;;;2042740;27;2742973;-74
2023/05/12 04:02:32;;;;;;;;;3.83;3.83;;;;;;;;2046780;27;2741972;-74
2023/05/12 04:03:45;;;;;;;;;8.33;5.33;;;;;;;;2037062;27;2746105;-74
2023/05/12 04:04:58;;;;;;;;;4.67;3.00;;;;;;;;2038875;27;2742983;-75
2023/05/12 04:06:08;;;;;;;;;5.67;3.00;;;;;;;;2020246;27;2752725;-75
2023/05/12 04:07:19;;;;;;;;;3.00;2.00;;;;;;;;2068961;27;2750308;-75
2023/05/12 04:08:29;;;;;;;;;6.33;4.00;;;;;;;;2044595;27;2742059;-75
2023/05/12 04:09:40;;;;;;;;;1.00;1.00;;;;;;;;2070919;27;2722183;-76
2023/05/12 04:10:53;;;;;;;;;3.00;2.33;;;;;;;;2013641;27;2749327;-76
2023/05/12 04:12:03;;;;;;;;;4.33;4.33;;;;;;;;2036355;27;2747198;-75
2023/05/12 04:13:14;;;;;;;;;1.33;1.00;;;;;;;;2062248;27;2726304;-75
2023/05/12 04:14:24;;;;;;;;;5.00;4.00;;;;;;;;2043672;27;2754984;-75
2023/05/12 04:15:35;;;;;;;;;4.00;4.00;;;;;;;;2052756;27;2754420;-75
2023/05/12 04:16:47;;;;;;;;;12.00;5.00;;;;;;;;2047224;27;2765893;-75
2023/05/12 04:17:59;;;;;;;;;4.80;4.00;;;;;;;;2053698;27;2740382;-75
2023/05/12 04:19:12;;;;;;;;;3.00;3.00;;;;;;;;2062653;27;2739207;-75
2023/05/12 04:20:22;;;;;;;;;3.33;2.00;;;;;;;;2019509;27;2746150;-75
2023/05/12 04:21:33;;;;;;;;;2.33;2.00;;;;;;;;2069673;27;2739877;-75
2023/05/12 04:22:44;;;;;;;;;5.67;3.00;;;;;;;;2044736;27;2740890;-75
2023/05/12 04:23:55;;;;;;;;;5.67;3.67;;;;;;;;2059923;27;2748711;-75
2023/05/12 04:25:07;;;;;;;;;5.20;3.40;;;;;;;;2062199;27;2738821;-75
2023/05/12 04:26:20;;;;;;;;;5.83;3.50;;;;;;;;2038640;27;2735681;-75
2023/05/12 04:27:33;;;;;;;;;4.67;4.67;;;;;;;;2037290;27;2747183;-75
2023/05/12 04:28:46;;;;;;;;;3.83;3.00;;;;;;;;2045508;27;2746124;-75
2023/05/12 04:29:57;;;;;;;;;4.00;3.33;;;;;;;;2009947;27;2750279;-75
2023/05/12 04:31:08;;;;;;;;;4.00;4.00;;;;;;;;2050629;28;2748563;-75
2023/05/12 04:32:18;;;;;;;;;5.00;3.00;;;;;;;;2053515;27;2744032;-75
2023/05/12 04:33:31;;;;;;;;;1.60;1.40;;;;;;;;2069503;27;2737792;-75
2023/05/12 04:34:44;;;;;;;;;4.67;3.67;;;;;;;;2048456;27;2737818;-75
2023/05/12 04:35:57;;;;;;;;;4.67;2.83;;;;;;;;2047105;27;2744026;-75
2023/05/12 04:37:10;;;;;;;;;3.17;2.00;;;;;;;;2037700;27;2750261;-75
2023/05/12 04:38:23;;;;;;;;;2.83;2.00;;;;;;;;2038635;27;2737800;-75
2023/05/12 04:39:36;;;;;;;;;3.00;3.00;;;;;;;;2047090;27;2737754;-75
2023/05/12 04:40:49;;;;;;;;;3.67;3.00;;;;;;;;2045294;27;2747136;-75
2023/05/12 04:42:03;;;;;;;;;2.00;2.00;;;;;;;;2037486;27;2751330;-75
2023/05/12 04:43:16;;;;;;;;;4.00;3.00;;;;;;;;2039561;27;2738868;-76
2023/05/12 04:44:29;;;;;;;;;4.83;2.00;;;;;;;;2036457;27;2750342;-76
2023/05/12 04:45:39;;;;;;;;;4.00;2.00;;;;;;;;2010275;27;2752364;-76
2023/05/12 04:46:52;;;;;;;;;1.33;1.33;;;;;;;;2060698;27;2737808;-76
2023/05/12 04:48:05;;;;;;;;;3.17;3.00;;;;;;;;2061355;27;2754455;-76
2023/05/12 04:49:15;;;;;;;;;5.67;2.67;;;;;;;;2016708;27;2754429;-76
2023/05/12 04:50:26;;;;;;;;;2.67;2.67;;;;;;;;2059044;27;2747155;-76
2023/05/12 04:51:41;;;;;;;;;2.00;2.00;;;;;;;;2061661;27;2741943;-76
2023/05/12 04:52:54;;;;;;;;;4.67;3.00;;;;;;;;2070210;27;2745072;-76
2023/05/12 04:54:04;;;;;;;;;3.67;3.00;;;;;;;;2020341;27;2754440;-76
2023/05/12 04:55:15;;;;;;;;;3.00;3.00;;;;;;;;2065464;27;2754436;-76
2023/05/12 04:56:26;;;;;;;;;3.00;3.00;;;;;;;;2067468;27;2750269;-75
2023/05/12 04:57:40;;;;;;;;;1.20;1.20;;;;;;;;2066869;27;2737770;-75
2023/05/12 04:58:50;;;;;;;;;3.00;2.00;;;;;;;;2021117;27;2750280;-76
2023/05/12 05:00:04;;;;;;;;;4.00;2.00;;;;;;;;2057084;27;2751430;-75
2023/05/12 05:01:17;;;;;;;;;2.17;1.00;;;;;;;;2061292;27;2743016;-75
2023/05/12 05:02:27;;;;;;;;;4.00;2.67;;;;;;;;2036432;27;2754439;-75
2023/05/12 05:03:38;;;;;;;;;1.33;1.33;;;;;;;;2069188;27;2730474;-75
2023/05/12 05:04:51;;;;;;;;;3.67;2.17;;;;;;;;2070249;27;2745065;-75
2023/05/12 05:06:04;;;;;;;;;1.83;1.83;;;;;;;;2046582;27;2735721;-75
2023/05/12 05:07:17;;;;;;;;;2.00;2.00;;;;;;;;2038345;27;2729458;-75
2023/05/12 05:08:30;;;;;;;;;3.67;2.00;;;;;;;;2061407;27;2751302;-75
2023/05/12 05:09:43;;;;;;;;;4.00;1.83;;;;;;;;2046079;27;2741951;-75
2023/05/12 05:10:56;;;;;;;;;3.33;2.00;;;;;;;;2045772;27;2737821;-75
2023/05/12 05:12:10;;;;;;;;;2.83;1.00;;;;;;;;2046804;27;2723179;-75
2023/05/12 05:13:23;;;;;;;;;1.33;1.00;;;;;;;;2058833;27;2737789;-75
2023/05/12 05:14:36;;;;;;;;;2.00;2.00;;;;;;;;2059822;27;2748193;-75
2023/05/12 05:15:50;;;;;;;;;2.00;2.00;;;;;;;;2046009;27;2742290;-74
2023/05/12 05:17:00;;;;;;;;;3.00;3.00;;;;;;;;2020702;27;2754949;-74
2023/05/12 05:18:11;;;;;;;;;1.67;1.33;;;;;;;;2067998;27;2735701;-75
2023/05/12 05:19:24;;;;;;;;;2.17;1.67;;;;;;;;2069594;27;2735721;-75
2023/05/12 05:20:37;;;;;;;;;1.50;1.50;;;;;;;;2070888;27;2728383;-75
2023/05/12 05:21:50;;;;;;;;;2.67;1.67;;;;;;;;2046096;27;2734637;-76
2023/05/12 05:23:03;;;;;;;;;1.33;1.33;;;;;;;;2037226;27;2734125;-76
2023/05/12 05:24:16;;;;;;;;;4.17;1.50;;;;;;;;2038414;27;2738262;-75
2023/05/12 05:25:29;;;;;;;;;3.33;1.00;;;;;;;;2062531;27;2731511;-75
2023/05/12 05:26:43;;;;;;;;;1.67;1.67;;;;;;;;2058062;27;2729456;-75
2023/05/12 05:27:57;;;;;;;;;2.33;1.00;;;;;;;;2032055;27;2717963;-76
2023/05/12 05:29:10;;;;;;;;;2.67;2.00;;;;;;;;2070224;27;2748214;-77
2023/05/12 05:30:23;;;;;;;;;1.83;1.83;;;;;;;;2037876;27;2730485;-76
2023/05/12 05:31:36;;;;;;;;;1.17;1.17;;;;;;;;2038041;27;2733645;-76
2023/05/12 05:32:49;;;;;;;;;1.67;0.00;;;;;;;;2040206;27;2727345;-76
2023/05/12 05:34:02;;;;;;;;;1.17;1.17;;;;;;;;2062566;27;2722197;-76
2023/05/12 05:35:15;;;;;;;;;2.00;1.00;;;;;;;;2037402;27;2733618;-75
2023/05/12 05:36:28;;;;;;;;;2.50;2.00;;;;;;;;2060096;27;2747159;-76
2023/05/12 05:37:41;;;;;;;;;1.00;1.00;;;;;;;;2031177;27;2728375;-75
2023/05/12 05:38:54;;;;;;;;;1.33;1.00;;;;;;;;2039358;27;2735698;-75
2023/05/12 05:40:08;;;;;;;;;1.00;1.00;;;;;;;;2030039;27;2725282;-75
2023/05/12 05:41:22;;;;;;;;;1.00;1.00;;;;;;;;2056722;27;2733599;-78
2023/05/12 05:42:35;;;;;;;;;2.00;2.00;;;;;;;;2061753;27;2741931;-78
2023/05/12 05:43:48;;;;;;;;;2.17;1.50;;;;;;;;2038572;27;2731540;-74
2023/05/12 05:45:01;;;;;;;;;2.00;2.00;;;;;;;;2037964;27;2732557;-74
2023/05/12 05:46:14;;;;;;;;;3.00;1.17;;;;;;;;2046834;27;2723556;-74
2023/05/12 05:47:27;;;;;;;;;2.00;1.33;;;;;;;;2069724;27;2730462;-74
2023/05/12 05:48:40;;;;;;;;;2.83;2.00;;;;;;;;2046007;27;2737840;-74
2023/05/12 05:49:54;;;;;;;;;2.00;2.00;;;;;;;;2044525;27;2742442;-74
2023/05/12 05:51:10;;;;;;;;;2.17;2.17;;;;;;;;2036388;27;2736735;-74
2023/05/12 05:52:23;;;;;;;;;3.00;2.00;;;;;;;;2034358;27;2748186;-74
2023/05/12 05:53:36;;;;;;;;;1.00;1.00;;;;;;;;2039161;27;2720108;-74
2023/05/12 05:54:49;;;;;;;;;2.17;2.17;;;;;;;;2069152;27;2737757;-74
2023/05/12 05:56:02;;;;;;;;;1.00;1.00;;;;;;;;2047071;27;2724220;-74
2023/05/12 05:57:12;;;;;;;;;2.00;2.00;;;;;;;;2042830;27;2752454;-74
2023/05/12 05:58:23;;;;;;;;;3.00;2.00;;;;;;;;2067627;27;2752400;-74
2023/05/12 05:59:37;;;;;;;;;2.50;1.33;;;;;;;;2068097;27;2730558;-74
2023/05/12 06:00:50;;;;;;;;;3.00;2.00;;;;;;;;2037496;27;2750284;-74
2023/05/12 06:02:03;;;;;;;;;4.83;2.50;;;;;;;;2043327;27;2750367;-74
2023/05/12 06:03:13;;;;;;;;;4.00;2.00;;;;;;;;2019902;27;2754526;-74
2023/05/12 06:04:24;;;;;;;;;4.00;2.33;;;;;;;;2055591;27;2752360;-74
2023/05/12 06:05:35;;;;;;;;;1.00;1.00;;;;;;;;2054253;27;2735709;-74
2023/05/12 06:06:45;;;;;;;;;3.33;2.00;;;;;;;;2039888;27;3442956;-75
2023/05/12 06:07:56;;;;;;;;;1.67;1.67;;;;;;;;2063247;27;2740898;-75
2023/05/12 06:09:08;;;;;;;;;3.67;2.67;;;;;;;;2042207;27;2754455;-75
2023/05/12 06:10:21;;;;;;;;;2.00;2.00;;;;;;;;2059701;27;2751342;-75
2023/05/12 06:11:34;;;;;;;;;3.33;1.67;;;;;;;;2027204;27;2741958;-75
2023/05/12 06:12:47;;;;;;;;;6.67;2.50;;;;;;;;2035341;27;2752356;-74
2023/05/12 06:14:00;;;;;;;;;2.00;1.17;;;;;;;;2046051;27;2722137;-75
2023/05/12 06:15:13;;;;;;;;;5.00;2.50;;;;;;;;2029239;27;2754443;-75
2023/05/12 06:16:26;;;;;;;;;2.00;2.00;;;;;;;;2023526;27;2748299;-75
2023/05/12 06:17:39;;;;;;;;;4.17;3.00;;;;;;;;2030046;27;2741928;-74
2023/05/12 06:18:53;;;;;;;;;3.00;1.00;;;;;;;;2035238;27;2729460;-74
2023/05/12 06:20:06;;;;;;;;;1.00;1.00;;;;;;;;2038238;27;2732565;-75
2023/05/12 06:21:19;;;;;;;;;4.50;2.00;;;;;;;;2066604;27;2745052;-75
2023/05/12 06:22:33;;;;;;;;;2.00;2.00;;;;;;;;2038821;27;2738116;-75
2023/05/12 06:23:46;;;;;;;;;1.67;1.50;;;;;;;;2039298;27;2729455;-75
2023/05/12 06:25:00;;;;;;;;;2.67;2.00;;;;;;;;2032835;27;2733646;-75
2023/05/12 06:26:13;;;;;;;;;1.33;1.33;;;;;;;;2030494;27;2723174;-74
2023/05/12 06:27:26;;;;;;;;;1.50;1.50;;;;;;;;2031360;27;2725294;-74
2023/05/12 06:28:39;;;;;;;;;3.33;2.17;;;;;;;;2037260;27;2745064;-74
2023/05/12 06:29:52;;;;;;;;;5.17;3.00;;;;;;;;2045864;27;2742978;-74
2023/05/12 06:31:06;;;;;;;;;2.67;1.83;;;;;;;;2042809;27;2737228;-74
2023/05/12 06:32:19;;;;;;;;;2.17;1.67;;;;;;;;2041598;27;2738807;-74
2023/05/12 06:33:32;;;;;;;;;1.83;1.33;;;;;;;;2039146;27;2728419;-74
2023/05/12 06:34:45;;;;;;;;;2.50;1.00;;;;;;;;2037869;27;2735698;-74
2023/05/12 06:35:56;;;;;;;;;3.67;2.00;;;;;;;;2017593;27;2753454;-74
2023/05/12 06:37:09;;;;;;;;;5.33;3.00;;;;;;;;2069509;27;2736502;-73
2023/05/12 06:38:22;;;;;;;;;2.50;2.17;;;;;;;;2046192;27;2736181;-73
2023/05/12 06:39:35;;;;;;;;;4.00;2.33;;;;;;;;2045325;27;2749259;-73
2023/05/12 06:40:49;;;;;;;;;2.67;2.33;;;;;;;;2035385;27;2748194;-74
2023/05/12 06:42:02;;;;;;;;;3.33;2.83;;;;;;;;2034362;27;2738827;-74
2023/05/12 06:43:15;;;;;;;;;3.67;3.50;;;;;;;;2040913;27;2746132;-74
2023/05/12 06:44:28;;;;;;;;;2.17;2.17;;;;;;;;2038416;27;2746112;-74
2023/05/12 06:45:42;;;;;;;;;4.00;3.00;;;;;;;;2045782;27;2736723;-74
2023/05/12 06:46:55;;;;;;;;;5.17;2.50;;;;;;;;2037089;27;2754967;-74
2023/05/12 06:48:09;;;;;;;;;2.00;2.00;;;;;;;;2038576;27;2744007;-74
2023/05/12 06:49:22;;;;;;;;;2.00;2.00;;;;;;;;2030861;27;2746955;-74
2023/05/12 06:50:35;;;;;;;;;2.00;2.00;;;;;;;;2029426;27;2747163;-74
2023/05/12 06:51:45;;;;;;;;;4.33;2.00;;;;;;;;2010639;27;2754443;-74
2023/05/12 06:52:56;;;;;;;;;4.33;3.00;;;;;;;;2064677;27;2739851;-74
2023/05/12 06:54:08;;;;;;;;;4.00;2.80;;;;;;;;2068123;27;2740895;-74
2023/05/12 06:55:22;;;;;;;;;3.00;2.50;;;;;;;;2030047;27;2731564;-74
2023/05/12 06:56:35;;;;;;;;;3.67;3.00;;;;;;;;2036271;27;2753759;-74
2023/05/12 06:57:54;;;;;;;;;2.83;2.33;;;;;;;;2044317;27;2748170;-74
2023/05/12 06:59:07;;;;;;;;;3.83;2.83;;;;;;;;2031599;27;2735716;-74
2023/05/12 07:00:24;;;;;;;;;2.50;2.50;;;;;;;;2035182;27;2746101;-74